Time;durP1;ratioP1;P1;durP2;ratioP2;P2;SDS_P1;SDS_P2;PMS_P1;PMS_P2;Temp;Humidity;BMP_temperature;BMP_pressure;BME280_temperature;BME280_humidity;BME280_pressure;Samples;Min_cycle;Max_cycle;Signal;HPM_P1;HPM_P2
2022/12/09 00:01:09;;;;;;;;;49.00;36.50;;;;;6.54;77.81;100338.78;5014023;28;45393;-72
2022/12/09 00:03:34;;;;;;;;;51.75;42.50;;;;;6.55;77.69;100336.06;5014902;28;45436;-72
2022/12/09 00:06:08;;;;;;;;;51.50;43.00;;;;;6.30;77.49;100301.94;5014809;28;45398;-72
2022/12/09 00:08:34;;;;;;;;;52.25;42.00;;;;;6.61;77.47;100334.88;5014894;28;45395;-72
2022/12/09 00:10:59;;;;;;;;;41.75;36.00;;;;;6.63;78.58;100330.38;5014909;28;45297;-72
2022/12/09 00:13:25;;;;;;;;;52.25;43.50;;;;;6.62;78.33;100327.81;5014242;28;45377;-72
2022/12/09 00:15:50;;;;;;;;;50.25;40.75;;;;;6.58;77.54;100319.16;5015039;28;45690;-72
2022/12/09 00:18:15;;;;;;;;;52.50;41.25;;;;;6.61;78.33;100318.97;5014784;28;46092;-72
2022/12/09 00:20:41;;;;;;;;;54.75;46.50;;;;;6.69;77.10;100319.50;5014611;28;45420;-72
2022/12/09 00:23:06;;;;;;;;;53.00;39.75;;;;;6.64;77.63;100321.50;5014742;28;45834;-72
2022/12/09 00:25:31;;;;;;;;;43.25;38.25;;;;;6.67;77.56;100316.03;5015199;28;45291;-72
2022/12/09 00:27:57;;;;;;;;;40.25;37.50;;;;;6.52;77.12;100291.16;4996907;28;46228;-72
2022/12/09 00:30:22;;;;;;;;;45.00;37.75;;;;;6.45;76.62;100281.81;5014232;28;45375;-72
2022/12/09 00:32:47;;;;;;;;;46.50;39.25;;;;;6.57;77.29;100317.41;5014662;28;45440;-71
2022/12/09 00:35:13;;;;;;;;;27.25;22.50;;;;;6.54;77.74;100307.81;5014189;28;45402;-72
2022/12/09 00:37:38;;;;;;;;;23.50;17.75;;;;;6.56;77.26;100313.09;5014669;28;46045;-72
2022/12/09 00:40:04;;;;;;;;;45.50;38.50;;;;;6.61;78.19;100313.69;5012491;28;45477;-72
2022/12/09 00:42:30;;;;;;;;;47.25;39.75;;;;;6.63;77.17;100309.19;4980888;28;45544;-72
2022/12/09 00:44:55;;;;;;;;;58.75;42.75;;;;;6.37;76.69;100271.59;4994722;28;45533;-72
2022/12/09 00:47:20;;;;;;;;;47.75;40.00;;;;;6.60;77.21;100306.69;4980018;28;45681;-72
2022/12/09 00:49:46;;;;;;;;;40.25;37.50;;;;;6.51;76.53;100294.75;5013985;28;45597;-72
2022/12/09 00:52:11;;;;;;;;;37.75;35.75;;;;;6.58;76.78;100300.59;4996904;28;45753;-72
2022/12/09 00:54:36;;;;;;;;;46.25;37.75;;;;;6.58;76.71;100297.94;5014286;28;45467;-72
2022/12/09 00:57:02;;;;;;;;;45.25;36.75;;;;;6.03;76.30;100224.69;5014161;28;47254;-72
2022/12/09 00:59:27;;;;;;;;;36.75;35.50;;;;;6.44;77.30;100297.75;5014010;28;45383;-72
2022/12/09 01:01:52;;;;;;;;;44.00;39.00;;;;;6.49;76.52;100290.44;5013618;28;45300;-72
2022/12/09 01:04:18;;;;;;;;;39.75;35.25;;;;;6.46;76.82;100291.44;5014080;28;45543;-72
2022/12/09 01:06:43;;;;;;;;;41.50;38.25;;;;;6.58;76.41;100287.34;5014089;28;45551;-72
2022/12/09 01:09:09;;;;;;;;;47.50;39.50;;;;;6.56;76.06;100286.56;5014012;28;45434;-72
2022/12/09 01:11:34;;;;;;;;;42.50;36.75;;;;;6.53;77.26;100281.41;5009481;28;45549;-72
2022/12/09 01:14:01;;;;;;;;;36.75;33.00;;;;;6.00;76.25;100193.91;5002753;28;45482;-72
2022/12/09 01:16:30;;;;;;;;;46.50;37.50;;;;;6.23;76.38;100232.53;4994273;28;45600;-72
2022/12/09 01:18:58;;;;;;;;;41.75;37.00;;;;;6.36;76.06;100275.16;5009406;28;45495;-71
2022/12/09 01:21:28;;;;;;;;;24.00;14.50;;;;;6.37;76.87;100282.19;5014237;28;45435;-72
2022/12/09 01:23:53;;;;;;;;;35.50;33.50;;;;;6.42;75.81;100283.75;5013618;28;45619;-72
2022/12/09 01:26:19;;;;;;;;;37.50;32.25;;;;;6.28;76.62;100272.03;5013757;28;46074;-72
2022/12/09 01:28:45;;;;;;;;;39.50;35.00;;;;;6.37;77.11;100290.13;5014297;28;45486;-71
2022/12/09 01:31:17;;;;;;;;;39.75;37.00;;;;;6.40;76.87;100275.88;5014029;28;45707;-72
2022/12/09 01:33:42;;;;;;;;;40.25;35.00;;;;;6.44;76.47;100268.63;4995101;28;45416;-72
2022/12/09 01:36:17;;;;;;;;;42.00;36.50;;;;;6.42;76.02;100287.25;5013385;28;45532;-72
2022/12/09 01:38:43;;;;;;;;;33.75;31.75;;;;;6.39;76.24;100285.59;5013683;28;45427;-72
2022/12/09 01:41:09;;;;;;;;;38.25;37.00;;;;;6.45;76.60;100287.09;5014016;28;45639;-72
2022/12/09 01:43:34;;;;;;;;;39.50;36.25;;;;;6.56;77.04;100281.28;5013509;28;45491;-72
2022/12/09 01:45:59;;;;;;;;;42.25;34.00;;;;;6.53;75.72;100282.28;5013729;28;45593;-72
2022/12/09 01:48:35;;;;;;;;;35.75;31.00;;;;;6.44;76.11;100285.38;5013285;28;45453;-72
2022/12/09 01:51:07;;;;;;;;;35.75;29.75;;;;;6.40;75.95;100289.97;5013626;28;45411;-72
2022/12/09 01:53:36;;;;;;;;;37.25;32.25;;;;;6.43;76.25;100293.41;5013847;28;45935;-72
2022/12/09 01:56:07;;;;;;;;;44.50;37.75;;;;;6.46;76.06;100295.91;5013525;28;47294;-72
2022/12/09 01:58:32;;;;;;;;;46.25;37.75;;;;;6.49;74.94;100301.03;5013222;28;45404;-72
2022/12/09 02:00:58;;;;;;;;;41.75;39.00;;;;;6.34;75.44;100292.06;5013365;28;45460;-72
2022/12/09 02:03:23;;;;;;;;;35.50;32.00;;;;;6.15;75.77;100241.78;5013217;28;45554;-72
2022/12/09 02:05:49;;;;;;;;;36.75;32.00;;;;;6.50;74.96;100286.88;4979132;28;45589;-72
2022/12/09 02:08:16;;;;;;;;;37.00;32.75;;;;;6.45;75.15;100267.69;5013059;28;45655;-72
2022/12/09 02:11:18;;;;;;;;;37.00;35.00;;;;;6.27;75.36;100274.75;5013907;28;45397;-72
2022/12/09 02:14:00;;;;;;;;;34.50;31.25;;;;;6.38;76.56;100283.91;5013270;28;45482;-72
2022/12/09 02:16:28;;;;;;;;;43.25;35.50;;;;;5.84;75.16;100187.63;5013081;28;45332;-72
2022/12/09 02:19:13;;;;;;;;;46.00;37.75;;;;;6.31;75.25;100274.53;5012966;28;45618;-72
2022/12/09 02:21:56;;;;;;;;;34.00;27.50;;;;;6.26;75.73;100235.94;5015293;28;45363;-72
2022/12/09 02:24:29;;;;;;;;;37.50;31.25;;;;;6.56;75.55;100270.69;5016743;28;45477;-72
2022/12/09 02:27:16;;;;;;;;;46.00;37.75;;;;;6.30;75.69;100275.44;5016452;28;46425;-72
2022/12/09 02:29:56;;;;;;;;;37.50;34.50;;;;;5.64;76.13;100213.28;5016362;28;45442;-72
2022/12/09 02:32:30;;;;;;;;;37.25;29.50;;;;;6.17;75.64;100269.91;5016674;28;45419;-72
2022/12/09 02:35:37;;;;;;;;;42.25;36.25;;;;;5.88;76.69;100265.97;5016738;28;45598;-72
2022/12/09 02:38:11;;;;;;;;;31.00;22.50;;;;;5.78;76.77;100267.34;5016201;28;46492;-72
2022/12/09 02:40:45;;;;;;;;;30.25;25.75;;;;;5.89;77.18;100278.28;5016675;28;45482;-72
2022/12/09 02:43:13;;;;;;;;;40.25;33.50;;;;;5.85;77.41;100269.63;5016315;28;45401;-72
2022/12/09 02:45:41;;;;;;;;;33.25;23.75;;;;;5.69;76.49;100235.06;4998717;28;45495;-72
2022/12/09 02:48:09;;;;;;;;;37.75;28.00;;;;;5.85;76.83;100263.47;5016580;28;45684;-72
2022/12/09 02:50:37;;;;;;;;;33.50;28.75;;;;;5.48;76.85;100202.56;5016376;28;45715;-71
2022/12/09 02:53:08;;;;;;;;;29.00;28.00;;;;;5.89;76.37;100265.03;5016343;28;45380;-71
2022/12/09 02:55:35;;;;;;;;;24.25;23.00;;;;;5.81;76.31;100264.56;5016235;28;45563;-71
2022/12/09 02:58:01;;;;;;;;;40.75;29.75;;;;;5.70;77.15;100260.59;5016151;28;45774;-71
2022/12/09 03:00:27;;;;;;;;;37.75;32.25;;;;;5.77;77.44;100265.63;5015969;28;45830;-71
2022/12/09 03:02:57;;;;;;;;;45.00;34.75;;;;;5.39;76.99;100211.75;5016103;28;45624;-71
2022/12/09 03:05:32;;;;;;;;;33.50;28.25;;;;;5.52;77.40;100264.09;5015852;28;45331;-70
2022/12/09 03:08:16;;;;;;;;;21.25;17.25;;;;;5.30;78.54;100266.88;5015545;28;45801;-71
2022/12/09 03:11:02;;;;;;;;;6.75;6.75;;;;;4.93;79.01;100221.78;5015832;28;45415;-71
2022/12/09 03:13:43;;;;;;;;;33.00;27.25;;;;;4.88;78.78;100213.19;5015615;28;45408;-70
2022/12/09 03:16:36;;;;;;;;;28.00;23.00;;;;;5.27;78.97;100259.94;5015853;28;45351;-72
2022/12/09 03:19:51;;;;;;;;;26.50;23.00;;;;;5.16;79.03;100252.47;5015099;28;45493;-72
2022/12/09 03:22:21;;;;;;;;;23.25;21.00;;;;;4.93;79.88;100221.78;4954106;28;45548;-72
2022/12/09 03:25:24;;;;;;;;;32.00;25.50;;;;;5.23;79.28;100253.06;4954504;28;45584;-72
2022/12/09 03:27:55;;;;;;;;;32.00;27.75;;;;;5.19;78.75;100244.41;4950115;28;45401;-72
2022/12/09 03:30:20;;;;;;;;;33.25;30.00;;;;;5.30;78.81;100245.72;4953943;28;45554;-72
2022/12/09 03:32:46;;;;;;;;;21.75;19.00;;;;;4.93;77.85;100176.84;4952824;28;45449;-72
2022/12/09 03:35:18;;;;;;;;;25.25;23.75;;;;;5.30;78.25;100240.44;4954300;28;45456;-72
2022/12/09 03:37:45;;;;;;;;;29.50;25.50;;;;;5.05;77.70;100194.78;4953978;28;45420;-72
2022/12/09 03:40:14;;;;;;;;;28.00;23.00;;;;;5.14;78.08;100225.25;4954010;28;46308;-72
2022/12/09 03:43:07;;;;;;;;;29.75;27.00;;;;;5.26;77.70;100221.19;4953638;28;45451;-70
2022/12/09 03:45:33;;;;;;;;;26.75;23.75;;;;;5.29;78.07;100242.22;4953915;28;45658;-72
2022/12/09 03:47:59;;;;;;;;;26.75;20.50;;;;;5.41;78.40;100237.28;4953996;28;45420;-72
2022/12/09 03:50:30;;;;;;;;;25.00;22.75;;;;;5.53;76.65;100242.00;4953828;28;46062;-72
2022/12/09 03:53:09;;;;;;;;;21.50;18.00;;;;;5.47;76.72;100237.88;4953827;28;45685;-72
2022/12/09 03:55:53;;;;;;;;;21.75;19.25;;;;;5.46;77.03;100235.28;4966532;28;45492;-72
2022/12/09 03:58:19;;;;;;;;;21.00;19.50;;;;;5.25;77.15;100224.78;4995519;28;45477;-72
2022/12/09 04:00:47;;;;;;;;;21.00;16.50;;;;;5.17;77.12;100245.41;4961433;28;47303;-72
2022/12/09 04:03:13;;;;;;;;;15.00;14.00;;;;;4.55;78.15;100171.47;5000841;28;45375;-71
2022/12/09 04:05:39;;;;;;;;;21.00;18.75;;;;;5.02;78.33;100223.16;5014775;28;45422;-72
2022/12/09 04:08:05;;;;;;;;;14.75;13.25;;;;;4.87;77.95;100208.81;5014882;28;45483;-70
2022/12/09 04:10:30;;;;;;;;;24.00;23.75;;;;;5.01;77.57;100229.38;4996363;28;48099;-72
2022/12/09 04:12:55;;;;;;;;;21.50;21.00;;;;;4.90;77.79;100229.84;5014274;28;45361;-72
2022/12/09 04:15:21;;;;;;;;;23.00;22.50;;;;;4.84;78.04;100217.75;5014807;28;45560;-72
2022/12/09 04:17:46;;;;;;;;;23.00;18.00;;;;;4.51;78.08;100138.19;5014863;28;45457;-72
2022/12/09 04:20:12;;;;;;;;;20.25;17.50;;;;;5.14;77.40;100225.25;5014444;28;46282;-72
2022/12/09 04:22:37;;;;;;;;;22.00;18.50;;;;;5.03;77.00;100223.09;5014783;28;45540;-72
2022/12/09 04:25:03;;;;;;;;;17.00;15.75;;;;;4.96;77.21;100224.28;5015247;28;45394;-73
2022/12/09 04:27:28;;;;;;;;;25.75;20.75;;;;;4.96;77.06;100220.78;4998604;28;45316;-72
2022/12/09 04:29:54;;;;;;;;;24.50;21.75;;;;;5.05;77.17;100215.09;4995077;28;45438;-72
2022/12/09 04:32:19;;;;;;;;;18.50;18.50;;;;;4.99;77.39;100210.91;4995071;28;45459;-72
2022/12/09 04:34:44;;;;;;;;;21.00;19.75;;;;;4.95;77.81;100209.34;4995157;28;45650;-72
2022/12/09 04:37:10;;;;;;;;;25.00;20.00;;;;;4.79;77.01;100197.72;4995051;28;45343;-72
2022/12/09 04:39:35;;;;;;;;;22.75;20.25;;;;;4.97;76.77;100222.50;5003689;28;46279;-72
2022/12/09 04:42:01;;;;;;;;;28.75;23.75;;;;;4.90;77.13;100227.22;5014328;28;45487;-72
2022/12/09 04:44:26;;;;;;;;;25.00;22.00;;;;;4.74;77.58;100200.59;5013922;28;45454;-72
2022/12/09 04:46:51;;;;;;;;;30.00;18.75;;;;;4.96;77.49;100221.63;5014843;28;45474;-72
2022/12/09 04:49:16;;;;;;;;;24.25;19.25;;;;;4.92;76.45;100208.63;5014295;28;46336;-72
2022/12/09 04:51:42;;;;;;;;;22.00;19.25;;;;;4.73;76.68;100159.22;5014246;28;45403;-72
2022/12/09 04:54:12;;;;;;;;;26.25;22.00;;;;;5.13;75.74;100225.31;4996976;28;45422;-73
2022/12/09 04:56:37;;;;;;;;;22.75;19.75;;;;;4.53;76.36;100152.19;5014220;28;45804;-72
2022/12/09 04:59:03;;;;;;;;;15.00;15.00;;;;;4.63;76.42;100184.31;5014019;28;45656;-72
2022/12/09 05:01:28;;;;;;;;;18.75;15.00;;;;;4.91;76.81;100222.78;5014283;28;45418;-72
2022/12/09 05:03:54;;;;;;;;;18.75;15.00;;;;;4.99;75.70;100221.50;4996328;28;45330;-72
2022/12/09 05:06:20;;;;;;;;;19.00;16.50;;;;;4.88;75.75;100221.13;5014348;28;45316;-72
2022/12/09 05:08:46;;;;;;;;;20.75;20.25;;;;;4.75;76.04;100222.59;5014105;28;46109;-72
2022/12/09 05:11:17;;;;;;;;;23.25;21.25;;;;;4.69;75.79;100219.28;5013602;28;45411;-72
2022/12/09 05:13:42;;;;;;;;;16.75;15.75;;;;;4.75;76.02;100226.09;5014314;28;45442;-72
2022/12/09 05:16:10;;;;;;;;;14.00;14.00;;;;;4.98;76.01;100222.44;5013880;28;45357;-72
2022/12/09 05:18:36;;;;;;;;;17.00;15.50;;;;;4.84;74.10;100216.91;5013837;28;46367;-72
2022/12/09 05:21:10;;;;;;;;;23.75;18.00;;;;;4.45;74.49;100207.13;5013959;28;45643;-72
2022/12/09 05:23:35;;;;;;;;;21.75;17.75;;;;;4.51;75.46;100220.94;4996162;28;45481;-72
2022/12/09 05:26:03;;;;;;;;;21.50;18.50;;;;;4.23;75.27;100168.41;5013682;28;45342;-72
2022/12/09 05:28:29;;;;;;;;;19.75;18.50;;;;;4.36;75.16;100198.66;5013436;28;46504;-72
2022/12/09 05:31:01;;;;;;;;;22.25;18.25;;;;;4.89;75.24;100221.06;5013769;28;45661;-72
2022/12/09 05:33:27;;;;;;;;;21.25;20.00;;;;;4.99;73.39;100205.63;5013111;28;45412;-72
2022/12/09 05:35:53;;;;;;;;;17.50;17.50;;;;;5.00;72.99;100177.44;5014067;28;45451;-72
2022/12/09 05:38:18;;;;;;;;;28.75;18.75;;;;;5.28;73.22;100229.91;5013443;28;47769;-72
2022/12/09 05:40:43;;;;;;;;;21.00;18.00;;;;;5.00;72.14;100217.94;4996357;28;45509;-72
2022/12/09 05:43:09;;;;;;;;;22.50;20.50;;;;;5.00;73.20;100220.56;5013479;28;45475;-72
2022/12/09 05:45:34;;;;;;;;;13.75;12.50;;;;;5.14;73.34;100224.38;4995728;28;45482;-72
2022/12/09 05:47:59;;;;;;;;;17.50;14.25;;;;;4.86;73.38;100160.41;4996063;28;48288;-72
2022/12/09 05:50:25;;;;;;;;;21.50;18.75;;;;;5.20;72.30;100229.41;5013443;28;45416;-72
2022/12/09 05:52:50;;;;;;;;;17.75;17.75;;;;;4.80;71.59;100188.88;5013437;28;45471;-72
2022/12/09 05:55:15;;;;;;;;;19.25;16.00;;;;;5.01;72.03;100240.81;4995269;28;45527;-72
2022/12/09 05:57:41;;;;;;;;;23.25;21.50;;;;;5.04;71.78;100240.66;5016600;28;45851;-72
2022/12/09 06:00:07;;;;;;;;;24.75;22.75;;;;;4.96;72.40;100236.66;5016770;28;45426;-72
2022/12/09 06:02:32;;;;;;;;;18.50;15.75;;;;;4.91;72.37;100231.56;5016921;28;45485;-72
2022/12/09 06:04:58;;;;;;;;;21.75;18.75;;;;;5.00;72.46;100239.06;5017048;28;45814;-72
2022/12/09 06:07:23;;;;;;;;;20.50;19.00;;;;;5.16;71.39;100246.34;5015952;28;46227;-72
2022/12/09 06:09:48;;;;;;;;;27.75;21.75;;;;;4.92;71.76;100217.41;5016022;28;45347;-73
2022/12/09 06:12:14;;;;;;;;;14.75;11.50;;;;;5.00;70.38;100249.66;5016608;28;45358;-72
2022/12/09 06:14:39;;;;;;;;;14.25;11.25;;;;;4.76;71.81;100250.72;5017076;28;45455;-72
2022/12/09 06:17:05;;;;;;;;;22.75;20.50;;;;;4.86;72.28;100254.69;5016634;28;46559;-72
2022/12/09 06:19:30;;;;;;;;;25.25;22.75;;;;;5.07;72.02;100260.81;5016778;28;45343;-72
2022/12/09 06:21:55;;;;;;;;;23.75;21.25;;;;;4.99;71.37;100262.94;4998703;28;45397;-72
2022/12/09 06:24:21;;;;;;;;;24.75;20.50;;;;;4.92;72.03;100256.22;5016321;28;45405;-73
2022/12/09 06:26:46;;;;;;;;;18.00;16.75;;;;;5.10;70.42;100270.41;5016635;28;45934;-72
2022/12/09 06:29:12;;;;;;;;;20.25;17.75;;;;;4.86;70.71;100263.47;5016028;28;45457;-73
2022/12/09 06:31:38;;;;;;;;;23.75;20.50;;;;;4.78;70.34;100248.88;5016640;28;45365;-72
2022/12/09 06:34:03;;;;;;;;;20.75;19.00;;;;;4.63;70.57;100253.91;5016718;28;45487;-72
2022/12/09 06:36:29;;;;;;;;;17.50;17.00;;;;;4.52;70.75;100271.97;5015859;28;45561;-73
2022/12/09 06:38:56;;;;;;;;;18.25;16.50;;;;;4.62;70.41;100269.81;5016649;28;45406;-72
2022/12/09 06:41:21;;;;;;;;;35.75;23.50;;;;;4.59;71.82;100267.28;5016387;28;45415;-72
2022/12/09 06:43:47;;;;;;;;;29.00;24.75;;;;;4.79;70.77;100264.69;5013968;28;45362;-73
2022/12/09 06:46:15;;;;;;;;;30.25;24.00;;;;;4.91;71.26;100254.50;5015330;28;46447;-71
2022/12/09 06:48:41;;;;;;;;;31.75;25.50;;;;;4.99;69.13;100255.00;4982178;28;45396;-70
2022/12/09 06:51:06;;;;;;;;;30.00;24.00;;;;;4.91;69.63;100252.69;4996116;28;45509;-71
2022/12/09 06:53:31;;;;;;;;;28.75;26.00;;;;;4.87;68.77;100257.28;4979504;28;45770;-71
2022/12/09 06:56:04;;;;;;;;;29.50;23.25;;;;;4.82;68.59;100251.31;4996408;28;46932;-71
2022/12/09 06:58:30;;;;;;;;;30.50;26.25;;;;;4.99;69.62;100255.84;4996690;28;45380;-71
2022/12/09 07:01:12;;;;;;;;;26.00;21.25;;;;;4.64;68.51;100200.16;5010124;28;45462;-71
2022/12/09 07:03:39;;;;;;;;;28.75;24.25;;;;;4.93;69.35;100263.22;5016059;28;45719;-70
2022/12/09 07:06:06;;;;;;;;;27.75;25.75;;;;;5.02;69.10;100260.16;5015218;28;45387;-70
2022/12/09 07:08:31;;;;;;;;;24.75;22.00;;;;;4.78;69.53;100185.44;5015104;28;45472;-71
2022/12/09 07:10:57;;;;;;;;;17.50;15.25;;;;;5.35;68.88;100259.59;5015479;28;45489;-71
2022/12/09 07:13:22;;;;;;;;;20.75;19.75;;;;;5.32;67.87;100257.94;4998070;28;45499;-70
2022/12/09 07:15:47;;;;;;;;;32.00;27.50;;;;;4.99;67.96;100263.78;4998157;28;45421;-70
2022/12/09 07:18:13;;;;;;;;;27.25;24.50;;;;;4.60;69.15;100226.75;4996668;28;46150;-71
2022/12/09 07:20:38;;;;;;;;;29.00;25.00;;;;;4.49;69.23;100254.47;4995079;28;45405;-71
2022/12/09 07:23:03;;;;;;;;;24.00;22.25;;;;;4.52;69.33;100269.31;4996081;28;45497;-71
2022/12/09 07:25:29;;;;;;;;;20.00;18.75;;;;;4.46;70.52;100275.72;4998342;28;45487;-71
2022/12/09 07:27:54;;;;;;;;;31.25;25.50;;;;;4.58;69.84;100269.09;5011597;28;45611;-71
2022/12/09 07:30:19;;;;;;;;;29.00;25.25;;;;;4.83;69.97;100275.97;4997735;28;45373;-70
2022/12/09 07:32:45;;;;;;;;;29.25;24.00;;;;;4.85;68.99;100271.47;5015346;28;45515;-71
2022/12/09 07:35:10;;;;;;;;;20.00;18.00;;;;;4.72;68.84;100272.00;5015401;28;45396;-71
2022/12/09 07:37:35;;;;;;;;;26.25;23.75;;;;;4.58;69.17;100269.09;5015415;28;45498;-70
2022/12/09 07:40:01;;;;;;;;;30.25;28.25;;;;;4.59;70.08;100272.56;4997964;28;45409;-70
2022/12/09 07:42:26;;;;;;;;;25.25;22.75;;;;;4.83;69.82;100278.59;5015436;28;45348;-71
2022/12/09 07:44:52;;;;;;;;;32.25;23.00;;;;;4.56;68.98;100207.50;5015334;28;47018;-71
2022/12/09 07:47:17;;;;;;;;;32.75;26.25;;;;;5.07;69.15;100278.47;5015221;28;45427;-70
2022/12/09 07:49:43;;;;;;;;;28.25;27.25;;;;;5.11;68.70;100267.69;5015386;28;45397;-71
2022/12/09 07:52:08;;;;;;;;;25.25;24.25;;;;;4.82;68.05;100290.13;5015474;28;45387;-70
2022/12/09 07:54:33;;;;;;;;;29.50;23.75;;;;;4.74;68.80;100277.22;5015245;28;45423;-70
2022/12/09 07:56:59;;;;;;;;;25.25;18.50;;;;;4.79;67.71;100292.88;5015261;28;45455;-70
2022/12/09 07:59:24;;;;;;;;;27.50;23.50;;;;;4.71;68.37;100291.44;5015596;28;45348;-70
2022/12/09 08:01:49;;;;;;;;;25.50;24.25;;;;;4.84;68.81;100296.19;5015409;28;45351;-71
2022/12/09 08:04:15;;;;;;;;;21.50;20.25;;;;;4.73;68.47;100288.72;5014666;28;47048;-71
2022/12/09 08:06:40;;;;;;;;;20.00;18.00;;;;;4.40;69.04;100285.69;5015246;28;45322;-71
2022/12/09 08:09:10;;;;;;;;;28.00;20.50;;;;;4.52;69.11;100288.69;5014953;28;45897;-70
2022/12/09 08:11:35;;;;;;;;;21.25;18.00;;;;;4.68;69.65;100301.25;5015446;28;45425;-70
2022/12/09 08:14:03;;;;;;;;;30.25;26.50;;;;;4.90;69.19;100293.28;5014789;28;45407;-71
2022/12/09 08:16:29;;;;;;;;;22.25;17.00;;;;;4.92;68.65;100283.50;5014511;28;45309;-71
2022/12/09 08:18:54;;;;;;;;;21.75;21.00;;;;;5.15;68.83;100293.06;5013952;28;45304;-71
2022/12/09 08:21:28;;;;;;;;;35.25;30.75;;;;;5.18;67.82;100290.31;5014887;28;45324;-70
2022/12/09 08:23:56;;;;;;;;;24.75;21.50;;;;;5.27;68.49;100290.81;5014862;28;45733;-71
2022/12/09 08:26:24;;;;;;;;;26.75;25.75;;;;;5.25;68.11;100290.00;5014526;28;45581;-71
2022/12/09 08:28:50;;;;;;;;;40.50;29.00;;;;;5.31;68.09;100293.25;4996086;28;45478;-70
2022/12/09 08:31:19;;;;;;;;;32.50;28.25;;;;;5.29;68.02;100292.47;4994987;28;45435;-70
2022/12/09 08:33:45;;;;;;;;;33.75;29.00;;;;;5.04;68.07;100232.72;4994776;28;45498;-71
2022/12/09 08:36:31;;;;;;;;;25.00;21.25;;;;;5.11;67.28;100257.09;4994946;28;45442;-70
2022/12/09 08:39:00;;;;;;;;;12.75;12.75;;;;;4.46;66.88;100203.56;4997146;28;45770;-70
2022/12/09 08:41:36;;;;;;;;;22.50;20.75;;;;;4.80;67.71;100286.66;4996711;28;45441;-71
2022/12/09 08:44:01;;;;;;;;;21.25;18.25;;;;;4.80;68.16;100294.59;5014214;28;45980;-70
2022/12/09 08:46:27;;;;;;;;;19.25;16.25;;;;;4.88;68.20;100279.28;5014302;28;45530;-71
2022/12/09 08:48:52;;;;;;;;;26.50;24.75;;;;;5.17;68.01;100293.00;5014693;28;45486;-71
2022/12/09 08:51:17;;;;;;;;;28.75;23.25;;;;;5.27;67.89;100294.31;5014552;28;45392;-71
2022/12/09 08:53:43;;;;;;;;;28.25;24.50;;;;;5.47;67.93;100300.50;5014302;28;45474;-70
2022/12/09 08:56:13;;;;;;;;;31.25;28.75;;;;;5.60;68.19;100306.97;5014403;28;45410;-70
2022/12/09 08:58:39;;;;;;;;;34.00;29.25;;;;;5.65;67.67;100304.94;5014421;28;45338;-70
2022/12/09 09:01:05;;;;;;;;;35.00;32.00;;;;;5.48;67.78;100300.44;5014227;28;45414;-70
2022/12/09 09:03:31;;;;;;;;;26.50;21.50;;;;;5.28;67.50;100306.63;5014161;28;45633;-70
2022/12/09 09:06:03;;;;;;;;;34.00;30.25;;;;;5.42;68.91;100302.50;4996371;28;45380;-70
2022/12/09 09:08:29;;;;;;;;;40.75;34.75;;;;;5.13;68.83;100246.47;5014161;28;45411;-70
2022/12/09 09:10:55;;;;;;;;;28.50;26.00;;;;;5.44;67.77;100305.91;5014410;28;45478;-70
2022/12/09 09:13:21;;;;;;;;;36.75;29.00;;;;;5.56;68.31;100308.03;5014041;28;45465;-70
2022/12/09 09:15:46;;;;;;;;;28.75;28.25;;;;;5.63;67.37;100303.28;4995987;28;46237;-70
2022/12/09 09:18:12;;;;;;;;;24.75;23.00;;;;;5.46;67.48;100298.78;5014376;28;45431;-70
2022/12/09 09:20:43;;;;;;;;;23.75;16.25;;;;;5.25;68.30;100301.47;5013922;28;45481;-70
2022/12/09 09:23:08;;;;;;;;;22.25;21.00;;;;;5.12;67.49;100309.06;5013936;28;45361;-70
2022/12/09 09:25:34;;;;;;;;;27.75;24.50;;;;;5.23;68.57;100303.31;5013838;28;45426;-70
2022/12/09 09:27:59;;;;;;;;;32.00;25.75;;;;;5.37;68.37;100306.22;5014230;28;45422;-70
2022/12/09 09:30:24;;;;;;;;;33.25;28.75;;;;;5.60;68.91;100299.03;5013731;28;45421;-70
2022/12/09 09:32:50;;;;;;;;;31.00;28.50;;;;;5.79;67.37;100298.16;5013644;28;46048;-70
2022/12/09 09:35:15;;;;;;;;;36.75;26.25;;;;;5.95;68.03;100300.94;5013372;28;45411;-70
2022/12/09 09:37:40;;;;;;;;;31.25;28.25;;;;;6.23;66.31;100296.09;4996256;28;45408;-70
2022/12/09 09:40:08;;;;;;;;;28.25;24.75;;;;;6.29;64.03;100310.84;5014256;28;45661;-70
2022/12/09 09:42:42;;;;;;;;;28.50;25.00;;;;;6.15;65.20;100314.13;5013445;28;46529;-70
2022/12/09 09:45:14;;;;;;;;;24.50;23.25;;;;;6.32;66.12;100308.03;5013269;28;45768;-70
2022/12/09 09:47:48;;;;;;;;;24.25;18.25;;;;;5.58;65.80;100159.78;5013722;28;45368;-69
2022/12/09 09:50:40;;;;;;;;;36.50;29.00;;;;;6.33;63.54;100306.22;4995772;28;45527;-70
2022/12/09 09:53:29;;;;;;;;;18.50;18.50;;;;;6.11;64.36;100294.03;5013407;28;46391;-69
2022/12/09 09:55:56;;;;;;;;;27.00;24.50;;;;;6.31;64.37;100301.00;5013218;28;45418;-69
2022/12/09 09:58:34;;;;;;;;;21.25;16.00;;;;;6.14;64.51;100319.50;5013704;28;45419;-69
2022/12/09 10:01:06;;;;;;;;;40.00;34.75;;;;;6.32;65.22;100318.63;5013295;28;45359;-69
2022/12/09 10:03:53;;;;;;;;;30.75;27.00;;;;;6.38;65.54;100312.16;5013496;28;46280;-69
2022/12/09 10:06:42;;;;;;;;;36.50;34.75;;;;;6.48;65.49;100312.56;5013410;28;45432;-69
2022/12/09 10:09:13;;;;;;;;;33.25;27.25;;;;;6.57;64.92;100313.00;5013274;28;45440;-69
2022/12/09 10:11:45;;;;;;;;;33.50;28.75;;;;;6.69;65.60;100303.59;5013709;28;45472;-69
2022/12/09 10:14:41;;;;;;;;;33.50;32.50;;;;;6.78;65.49;100296.09;5013259;28;45446;-70
2022/12/09 10:17:31;;;;;;;;;34.00;31.00;;;;;7.15;64.57;100283.59;4998232;28;45471;-70
2022/12/09 10:20:34;;;;;;;;;12.75;12.00;;;;;7.34;63.58;100287.00;5014231;28;45348;-70
2022/12/09 10:23:04;;;;;;;;;29.00;27.75;;;;;7.16;62.14;100278.19;4949891;28;45399;-70
2022/12/09 10:25:35;;;;;;;;;31.00;27.50;;;;;7.57;62.78;100285.75;4933876;28;47066;-70
2022/12/09 10:28:20;;;;;;;;;37.00;33.00;;;;;7.63;63.03;100294.34;4949632;28;45539;-70
2022/12/09 10:30:51;;;;;;;;;33.75;32.00;;;;;7.64;63.61;100294.25;4933223;28;45396;-70
2022/12/09 10:33:19;;;;;;;;;40.00;36.00;;;;;7.65;63.21;100284.47;4932553;28;45630;-70
2022/12/09 10:35:45;;;;;;;;;33.75;31.00;;;;;7.56;63.37;100230.09;4932871;28;45559;-70
2022/12/09 10:38:17;;;;;;;;;36.25;32.25;;;;;7.84;62.86;100285.19;4932306;28;45497;-70
2022/12/09 10:40:45;;;;;;;;;37.00;31.75;;;;;7.77;62.85;100280.28;4932812;28;45513;-71
2022/12/09 10:43:39;;;;;;;;;39.50;36.75;;;;;7.39;62.34;100228.34;4923583;28;45368;-70
2022/12/09 10:46:11;;;;;;;;;40.75;32.25;;;;;7.53;61.72;100273.59;4954727;28;45469;-70
2022/12/09 10:48:36;;;;;;;;;37.25;34.25;;;;;7.40;63.01;100267.22;4954969;28;45541;-69
2022/12/09 10:51:10;;;;;;;;;30.75;30.75;;;;;7.30;62.40;100228.84;4954709;28;45482;-70
2022/12/09 10:53:42;;;;;;;;;41.00;34.25;;;;;7.54;60.96;100266.47;4955031;28;45440;-70
2022/12/09 10:56:07;;;;;;;;;46.25;37.00;;;;;7.37;61.75;100268.25;4954778;28;46219;-70
2022/12/09 10:58:33;;;;;;;;;31.50;31.50;;;;;7.39;63.29;100263.69;4973934;28;45416;-70
2022/12/09 11:01:11;;;;;;;;;31.50;29.75;;;;;7.40;62.80;100264.56;4996683;28;45340;-70
2022/12/09 11:03:54;;;;;;;;;33.50;28.75;;;;;7.50;61.22;100262.28;5005021;28;45544;-70
2022/12/09 11:06:27;;;;;;;;;40.50;29.75;;;;;7.47;63.18;100259.78;5015862;28;45497;-70
2022/12/09 11:08:55;;;;;;;;;26.75;24.75;;;;;7.36;61.69;100242.66;5015809;28;45576;-70
2022/12/09 11:11:47;;;;;;;;;31.00;26.00;;;;;7.46;62.95;100250.13;5016062;28;45359;-70
2022/12/09 11:14:28;;;;;;;;;32.00;29.00;;;;;7.66;61.33;100252.53;5016189;28;45464;-70
2022/12/09 11:17:09;;;;;;;;;33.75;29.25;;;;;8.17;61.60;100248.84;5015534;28;46382;-70
2022/12/09 11:19:36;;;;;;;;;49.00;40.25;;;;;8.18;60.25;100174.38;4996063;28;45373;-70
2022/12/09 11:22:21;;;;;;;;;36.25;35.00;;;;;8.53;60.25;100248.56;4978347;28;45403;-70
2022/12/09 11:24:47;;;;;;;;;68.75;50.75;;;;;8.48;58.73;100242.63;4996092;28;45572;-70
2022/12/09 11:27:48;;;;;;;;;53.75;44.50;;;;;9.02;59.94;100234.13;5001118;28;46128;-70